Time;durP1;ratioP1;P1;durP2;ratioP2;P2;SDS_P1;SDS_P2;PMS_P1;PMS_P2;Temp;Humidity;BMP_temperature;BMP_pressure;BME280_temperature;BME280_humidity;BME280_pressure;Samples;Min_cycle;Max_cycle;Signal;HPM_P1;HPM_P2
2023/10/01 00:01:00;;;;;;;19.65;5.28;;;16.10;99.90;;;;;;5061831;28;20305;-69
2023/10/01 00:03:27;;;;;;;12.50;5.00;;;16.20;99.90;;;;;;5062106;28;20081;-69
2023/10/01 00:05:54;;;;;;;17.20;5.95;;;16.20;99.90;;;;;;5062136;28;20055;-68
2023/10/01 00:08:22;;;;;;;14.27;5.65;;;16.20;99.90;;;;;;5065417;28;20094;-69
2023/10/01 00:10:49;;;;;;;17.05;5.55;;;16.10;99.90;;;;;;5051261;28;20048;-70
2023/10/01 00:13:15;;;;;;;17.08;4.97;;;16.10;99.90;;;;;;5047217;28;20050;-69
2023/10/01 00:15:43;;;;;;;13.65;4.70;;;16.10;99.90;;;;;;5060781;28;20052;-69
2023/10/01 00:18:10;;;;;;;13.05;5.07;;;16.10;99.90;;;;;;5061371;28;20135;-68
2023/10/01 00:20:37;;;;;;;15.20;5.38;;;16.10;99.90;;;;;;5049893;28;20053;-68
2023/10/01 00:23:04;;;;;;;17.17;6.13;;;16.10;99.90;;;;;;5036844;28;20456;-69
2023/10/01 00:25:32;;;;;;;15.27;5.88;;;16.10;99.90;;;;;;5036942;28;20054;-69
2023/10/01 00:27:59;;;;;;;17.30;6.60;;;16.10;99.90;;;;;;5054323;28;20060;-68
2023/10/01 00:30:31;;;;;;;14.48;5.75;;;16.10;99.90;;;;;;5055240;28;20045;-69
2023/10/01 00:33:06;;;;;;;14.57;5.35;;;16.10;99.90;;;;;;5059087;28;20506;-68
2023/10/01 00:35:37;;;;;;;15.88;4.80;;;16.00;99.90;;;;;;5055829;28;20076;-69
2023/10/01 00:38:04;;;;;;;16.23;6.00;;;16.10;99.90;;;;;;5064979;28;20073;-69
2023/10/01 00:40:31;;;;;;;14.57;5.50;;;16.00;99.90;;;;;;5052796;28;20451;-69
2023/10/01 00:42:58;;;;;;;14.80;5.65;;;16.00;99.90;;;;;;5064003;28;20045;-67
2023/10/01 00:45:25;;;;;;;27.38;6.50;;;16.00;99.90;;;;;;5044638;28;20052;-69
2023/10/01 00:47:52;;;;;;;13.93;5.55;;;15.90;99.90;;;;;;5049666;28;20507;-68
2023/10/01 00:50:23;;;;;;;18.20;5.90;;;15.90;99.90;;;;;;5052162;28;20124;-69
2023/10/01 00:52:51;;;;;;;19.27;6.53;;;15.90;99.90;;;;;;5020481;28;20127;-68
2023/10/01 00:55:20;;;;;;;18.17;6.15;;;15.90;99.90;;;;;;5067286;28;20052;-68
2023/10/01 00:57:49;;;;;;;13.93;5.03;;;15.90;99.90;;;;;;5060663;28;20106;-70
2023/10/01 01:00:16;;;;;;;14.48;5.50;;;15.90;99.90;;;;;;5047138;28;20040;-68
2023/10/01 01:05:35;;;;;;;18.50;6.93;;;15.90;99.90;;;;;;5061294;28;20047;-69
2023/10/01 01:08:07;;;;;;;;;;;15.90;99.90;;;;;;5051586;28;20048;-68
2023/10/01 01:10:39;;;;;;;17.38;5.57;;;15.90;99.90;;;;;;5058147;28;20286;-68
2023/10/01 01:13:06;;;;;;;16.50;5.28;;;15.90;99.90;;;;;;4692447;28;10000637;-69
2023/10/01 01:15:34;;;;;;;18.55;5.38;;;15.90;99.90;;;;;;5065094;28;20511;-68
2023/10/01 01:18:06;;;;;;;14.70;6.68;;;15.90;99.90;;;;;;5051742;28;20487;-69
2023/10/01 01:20:36;;;;;;;18.92;6.45;;;15.90;99.90;;;;;;5040431;28;20100;-69
2023/10/01 01:23:05;;;;;;;16.75;5.78;;;15.90;99.90;;;;;;5058844;28;20549;-68
2023/10/01 01:25:32;;;;;;;23.58;6.95;;;15.90;99.90;;;;;;5045196;28;20078;-68
2023/10/01 01:27:59;;;;;;;19.65;6.80;;;15.90;99.90;;;;;;5054777;28;20254;-69
2023/10/01 01:30:27;;;;;;;14.45;5.60;;;15.90;99.90;;;;;;5069886;28;20219;-69
2023/10/01 01:32:55;;;;;;;21.88;7.03;;;15.90;99.90;;;;;;5059213;28;20310;-68
2023/10/01 01:35:27;;;;;;;20.60;6.45;;;15.80;99.90;;;;;;5070965;28;20116;-68
2023/10/01 01:37:58;;;;;;;16.20;6.80;;;15.80;99.90;;;;;;5056091;28;20119;-69
2023/10/01 01:40:31;;;;;;;17.83;6.68;;;15.80;99.90;;;;;;5051433;28;20135;-66
2023/10/01 01:43:04;;;;;;;17.38;6.63;;;15.90;99.90;;;;;;5052239;28;20052;-68
2023/10/01 01:45:33;;;;;;;18.25;5.28;;;15.90;99.90;;;;;;5043918;28;20076;-67
2023/10/01 01:48:00;;;;;;;21.25;6.43;;;15.90;99.90;;;;;;5060713;28;20091;-68
2023/10/01 01:50:27;;;;;;;20.40;6.90;;;15.90;99.90;;;;;;5063793;28;20303;-68
2023/10/01 01:52:57;;;;;;;23.60;6.45;;;15.90;99.90;;;;;;5058610;28;20095;-68
2023/10/01 01:55:27;;;;;;;18.67;6.97;;;15.90;99.90;;;;;;5031637;28;20044;-67
2023/10/01 02:00:31;;;;;;;19.20;7.30;;;16.00;99.90;;;;;;5046355;28;20415;-68
2023/10/01 02:03:05;;;;;;;17.13;6.50;;;16.00;99.90;;;;;;5064594;28;20253;-68
2023/10/01 02:05:32;;;;;;;22.98;6.35;;;16.00;99.90;;;;;;5065449;28;20082;-68
2023/10/01 02:08:08;;;;;;;24.80;7.13;;;16.10;99.90;;;;;;5058903;28;20047;-68
2023/10/01 02:10:44;;;;;;;18.15;5.95;;;16.10;99.90;;;;;;5065241;28;20053;-68
2023/10/01 02:13:13;;;;;;;18.95;6.75;;;16.10;99.90;;;;;;5046951;28;20043;-68
2023/10/01 02:15:40;;;;;;;22.45;6.72;;;16.10;99.90;;;;;;5047440;28;20054;-68
2023/10/01 02:18:09;;;;;;;22.35;7.30;;;16.10;99.90;;;;;;5059273;28;20558;-68
2023/10/01 02:20:36;;;;;;;14.40;6.03;;;16.00;99.90;;;;;;5064454;28;20059;-68
2023/10/01 02:23:03;;;;;;;14.10;5.97;;;16.00;99.90;;;;;;5067114;28;20047;-69
2023/10/01 02:25:39;;;;;;;16.90;6.20;;;16.00;99.90;;;;;;5063590;28;20051;-68
2023/10/01 02:28:14;;;;;;;23.65;7.63;;;16.00;99.90;;;;;;5055457;28;20043;-67
2023/10/01 02:30:42;;;;;;;16.20;6.95;;;16.00;99.90;;;;;;5059572;28;20070;-69
2023/10/01 02:33:21;;;;;;;19.60;6.43;;;16.10;99.90;;;;;;5042552;28;20055;-69
2023/10/01 02:35:49;;;;;;;16.48;6.43;;;16.10;99.90;;;;;;5049832;28;20049;-68
2023/10/01 02:41:02;;;;;;;18.23;5.90;;;16.20;99.90;;;;;;5054937;28;20053;-68
2023/10/01 02:43:35;;;;;;;14.65;6.35;;;16.20;99.90;;;;;;5061592;28;20468;-68
2023/10/01 02:46:07;;;;;;;21.83;7.30;;;16.20;99.90;;;;;;5054472;28;20068;-68
2023/10/01 02:48:35;;;;;;;23.40;7.37;;;16.20;99.90;;;;;;5058090;28;20067;-69
2023/10/01 02:51:17;;;;;;;19.65;6.90;;;16.20;99.90;;;;;;5041218;28;20548;-69
2023/10/01 02:56:34;;;;;;;12.60;5.40;;;16.30;99.90;;;;;;5038631;28;20049;-68
2023/10/01 02:59:13;;;;;;;19.33;6.70;;;16.30;99.90;;;;;;5068813;28;20479;-68
2023/10/01 03:01:45;;;;;;;14.50;5.88;;;16.30;99.90;;;;;;5062111;28;20567;-68
2023/10/01 03:04:15;;;;;;;16.77;5.88;;;16.30;99.90;;;;;;5058847;28;20049;-68
2023/10/01 03:06:58;;;;;;;18.38;6.82;;;16.30;99.90;;;;;;5062386;28;20127;-68
2023/10/01 03:09:34;;;;;;;19.92;5.65;;;16.30;99.90;;;;;;5058412;28;20076;-69
2023/10/01 03:17:39;;;;;;;21.73;5.53;;;16.40;99.90;;;;;;5062362;28;20106;-68
2023/10/01 03:20:19;;;;;;;16.83;5.82;;;16.30;99.90;;;;;;5042094;28;20123;-68
2023/10/01 03:22:53;;;;;;;22.20;7.15;;;16.40;99.90;;;;;;5052163;28;20053;-68
2023/10/01 03:25:27;;;;;;;24.38;6.72;;;16.40;99.90;;;;;;5057549;28;20097;-68
2023/10/01 03:28:00;;;;;;;14.90;6.20;;;16.40;99.90;;;;;;5055970;28;20033;-68
2023/10/01 03:30:33;;;;;;;16.90;6.15;;;16.40;99.90;;;;;;5066959;28;20052;-68
2023/10/01 03:33:07;;;;;;;20.42;6.30;;;16.30;99.90;;;;;;5046513;28;20132;-67
2023/10/01 03:35:35;;;;;;;14.75;5.80;;;16.40;99.90;;;;;;5039442;28;20056;-68
2023/10/01 03:38:14;;;;;;;18.52;6.28;;;16.30;99.90;;;;;;5062113;28;20542;-68
2023/10/01 03:41:00;;;;;;;15.55;6.38;;;16.30;99.90;;;;;;5061653;28;20040;-68
2023/10/01 03:43:37;;;;;;;15.57;6.72;;;16.30;99.90;;;;;;5032920;28;20079;-68
2023/10/01 03:46:19;;;;;;;14.65;5.40;;;16.30;99.90;;;;;;5041069;28;20052;-68
2023/10/01 03:48:58;;;;;;;16.17;5.90;;;16.30;99.90;;;;;;5063356;28;20041;-68
2023/10/01 03:54:19;;;;;;;18.35;7.63;;;16.40;99.90;;;;;;5064456;28;20036;-68
2023/10/01 03:56:56;;;;;;;19.55;6.90;;;16.40;99.90;;;;;;5053089;28;20514;-68
2023/10/01 03:59:27;;;;;;;16.10;6.38;;;16.30;99.90;;;;;;5060957;28;20049;-68
2023/10/01 04:02:02;;;;;;;19.73;6.30;;;16.40;99.90;;;;;;5064228;28;20044;-68
2023/10/01 04:07:17;;;;;;;20.52;6.80;;;16.40;99.90;;;;;;5033685;28;20053;-68
2023/10/01 04:09:47;;;;;;;16.52;6.38;;;16.40;99.90;;;;;;5063578;28;20051;-69
2023/10/01 04:12:28;;;;;;;16.25;6.32;;;16.40;99.90;;;;;;5045120;28;20051;-69
2023/10/01 04:15:01;;;;;;;25.38;7.25;;;16.30;99.90;;;;;;5053670;28;20052;-69
2023/10/01 04:17:28;;;;;;;20.52;7.28;;;16.40;99.90;;;;;;5051562;28;20426;-69
2023/10/01 04:20:00;;;;;;;19.85;6.97;;;16.30;99.90;;;;;;5060991;28;20090;-68
2023/10/01 04:22:29;;;;;;;13.82;6.28;;;16.40;99.90;;;;;;5057319;28;20049;-69
2023/10/01 04:25:12;;;;;;;18.60;6.95;;;16.30;99.90;;;;;;5059409;28;20870;-69
2023/10/01 04:27:41;;;;;;;20.13;6.80;;;16.30;99.90;;;;;;5046020;28;20132;-69
2023/10/01 04:30:10;;;;;;;15.02;5.95;;;16.30;99.90;;;;;;5047080;28;20041;-68
2023/10/01 04:32:36;;;;;;;15.88;6.07;;;16.30;99.90;;;;;;5054754;28;20075;-69
2023/10/01 04:35:14;;;;;;;16.25;5.80;;;16.30;99.90;;;;;;5057851;28;20052;-69
2023/10/01 04:37:47;;;;;;;15.30;6.35;;;16.30;99.90;;;;;;5063132;28;20060;-68
2023/10/01 04:40:33;;;;;;;26.02;8.02;;;16.30;99.90;;;;;;5051744;28;20041;-70
2023/10/01 04:43:08;;;;;;;17.50;6.70;;;16.30;99.90;;;;;;5057934;28;20132;-69
2023/10/01 04:45:40;;;;;;;16.17;6.72;;;16.30;99.90;;;;;;5056830;28;20041;-69
2023/10/01 04:48:15;;;;;;;20.25;7.45;;;16.20;99.90;;;;;;5057819;28;20044;-69
2023/10/01 04:50:43;;;;;;;19.67;7.05;;;16.30;99.90;;;;;;5070544;28;20056;-69
2023/10/01 04:53:13;;;;;;;17.27;6.35;;;16.20;99.90;;;;;;5058207;28;20453;-68
2023/10/01 04:55:41;;;;;;;20.70;6.60;;;16.20;99.90;;;;;;5056658;28;20109;-68
2023/10/01 04:58:14;;;;;;;18.23;6.05;;;16.30;99.90;;;;;;5054835;28;20052;-68
2023/10/01 05:00:44;;;;;;;19.75;6.95;;;16.30;99.90;;;;;;5053695;28;20053;-68
2023/10/01 05:03:14;;;;;;;25.48;8.15;;;16.30;99.90;;;;;;5048191;28;20131;-68
2023/10/01 05:05:44;;;;;;;18.55;6.97;;;16.30;99.90;;;;;;5037911;28;20048;-68
2023/10/01 05:08:12;;;;;;;23.90;7.10;;;16.30;99.90;;;;;;5025872;28;20041;-67
2023/10/01 05:10:52;;;;;;;19.50;7.03;;;16.30;99.90;;;;;;5062054;28;20041;-69
2023/10/01 05:13:20;;;;;;;17.10;6.95;;;16.30;99.90;;;;;;5027214;28;20053;-69
2023/10/01 05:15:49;;;;;;;20.13;7.40;;;16.30;99.90;;;;;;5065100;28;20048;-68
2023/10/01 05:18:19;;;;;;;19.70;7.78;;;16.30;99.90;;;;;;5027009;28;20397;-69
2023/10/01 05:20:48;;;;;;;27.02;8.85;;;16.30;99.90;;;;;;5059975;28;20045;-69
2023/10/01 05:23:16;;;;;;;21.08;6.78;;;16.30;99.90;;;;;;5052751;28;20123;-69
2023/10/01 05:25:45;;;;;;;21.58;7.28;;;16.30;99.90;;;;;;5065555;28;20487;-68
2023/10/01 05:28:31;;;;;;;24.70;7.45;;;16.30;99.90;;;;;;5055098;28;20056;-69
2023/10/01 05:30:59;;;;;;;18.70;7.60;;;16.30;99.90;;;;;;5039397;28;20499;-69
2023/10/01 05:33:27;;;;;;;28.38;7.95;;;16.30;99.90;;;;;;5041796;28;20047;-69
2023/10/01 05:36:04;;;;;;;19.60;7.20;;;16.30;99.90;;;;;;5035769;28;20056;-69
2023/10/01 05:38:35;;;;;;;23.00;8.77;;;16.30;99.90;;;;;;5051086;28;20045;-69
2023/10/01 05:41:13;;;;;;;26.73;7.82;;;16.30;99.90;;;;;;5066099;28;20044;-68
2023/10/01 05:43:52;;;;;;;28.40;8.18;;;16.30;99.90;;;;;;5036427;28;20053;-66
2023/10/01 05:46:22;;;;;;;19.50;7.60;;;16.30;99.90;;;;;;5055078;28;20057;-68
2023/10/01 05:48:50;;;;;;;21.63;8.93;;;16.40;99.90;;;;;;5047213;28;20412;-69
2023/10/01 05:51:23;;;;;;;22.17;7.82;;;16.40;99.90;;;;;;5052452;28;20538;-69
2023/10/01 05:53:59;;;;;;;21.27;8.65;;;16.40;99.90;;;;;;5040007;28;20052;-70
2023/10/01 05:56:36;;;;;;;27.90;8.38;;;16.50;99.90;;;;;;5051303;28;20552;-68
2023/10/01 05:59:03;;;;;;;22.15;8.02;;;16.50;99.90;;;;;;5055090;28;20159;-68
2023/10/01 06:01:33;;;;;;;19.73;8.15;;;16.50;99.90;;;;;;5056111;28;20543;-69
2023/10/01 06:04:00;;;;;;;22.00;8.48;;;16.60;99.90;;;;;;5048519;28;20048;-69
2023/10/01 06:06:30;;;;;;;31.00;8.73;;;16.60;99.90;;;;;;5060370;28;20052;-68
2023/10/01 06:08:58;;;;;;;21.95;7.75;;;16.60;99.90;;;;;;5046621;28;20056;-68
2023/10/01 06:11:42;;;;;;;19.83;8.52;;;16.60;99.90;;;;;;5061814;28;20553;-69
2023/10/01 06:14:36;;;;;;;21.40;7.72;;;16.70;99.90;;;;;;5044498;28;20045;-67
2023/10/01 06:17:00;;;;;;;22.70;7.65;;;16.70;99.90;;;;;;5057540;28;20049;-67
2023/10/01 06:19:28;;;;;;;17.35;7.03;;;16.70;99.90;;;;;;5062594;28;20044;-68
2023/10/01 06:22:12;;;;;;;25.15;8.25;;;16.70;99.90;;;;;;5058141;28;20136;-67
2023/10/01 06:24:42;;;;;;;21.70;8.30;;;16.80;99.90;;;;;;5066594;28;20052;-69
2023/10/01 06:27:12;;;;;;;21.80;9.43;;;16.80;99.90;;;;;;5061142;28;20122;-68
2023/10/01 06:29:51;;;;;;;19.55;8.18;;;16.80;99.90;;;;;;5068172;28;20555;-68
2023/10/01 06:32:19;;;;;;;19.30;7.90;;;16.90;99.90;;;;;;5065398;28;20076;-67
2023/10/01 06:34:47;;;;;;;21.27;7.38;;;16.90;99.90;;;;;;5059518;28;20554;-68
2023/10/01 06:37:13;;;;;;;18.67;7.55;;;16.90;99.90;;;;;;5063793;28;20076;-67
2023/10/01 06:39:41;;;;;;;23.48;8.13;;;17.00;99.90;;;;;;5063100;28;20487;-67
2023/10/01 06:42:18;;;;;;;20.05;7.82;;;17.00;99.90;;;;;;5051910;28;20053;-67
2023/10/01 06:44:52;;;;;;;19.05;7.65;;;17.00;99.90;;;;;;5055003;28;20057;-67
2023/10/01 06:47:22;;;;;;;16.70;7.23;;;17.00;99.90;;;;;;5052175;28;20056;-67
2023/10/01 06:52:34;;;;;;;18.75;6.95;;;17.00;99.90;;;;;;5049452;28;20092;-69
2023/10/01 06:55:02;;;;;;;18.92;7.85;;;17.10;99.90;;;;;;5072248;28;20052;-67
2023/10/01 06:57:33;;;;;;;19.30;6.47;;;17.10;99.90;;;;;;5058913;28;20133;-67
2023/10/01 07:00:00;;;;;;;22.90;7.38;;;17.20;99.90;;;;;;5052538;28;21128;-66
2023/10/01 07:02:28;;;;;;;18.33;7.57;;;17.20;99.90;;;;;;5057572;28;20057;-67
2023/10/01 07:04:58;;;;;;;24.63;7.38;;;17.30;99.90;;;;;;5060238;28;20052;-67
2023/10/01 07:07:31;;;;;;;20.80;6.95;;;17.30;99.90;;;;;;5062376;28;20494;-67
2023/10/01 07:10:00;;;;;;;21.40;8.93;;;17.40;99.90;;;;;;5040260;28;20132;-67
2023/10/01 07:12:27;;;;;;;15.32;7.05;;;17.40;99.90;;;;;;5065354;28;20130;-67
2023/10/01 07:14:53;;;;;;;18.30;6.90;;;17.40;99.90;;;;;;5064250;28;20108;-68
2023/10/01 07:17:24;;;;;;;14.15;6.07;;;17.40;99.90;;;;;;5055851;28;20080;-67
2023/10/01 07:20:00;;;;;;;21.25;7.68;;;17.50;99.90;;;;;;5054430;28;20037;-67
2023/10/01 07:22:31;;;;;;;19.55;6.43;;;17.60;99.90;;;;;;5044920;28;20049;-67
2023/10/01 07:24:59;;;;;;;18.17;6.57;;;17.60;99.90;;;;;;5053010;28;20040;-67
2023/10/01 07:27:29;;;;;;;18.05;7.43;;;17.70;99.90;;;;;;5052323;28;20044;-67
2023/10/01 07:29:56;;;;;;;12.75;6.03;;;17.70;99.90;;;;;;5051268;28;20060;-67
2023/10/01 07:32:24;;;;;;;14.52;6.55;;;17.70;99.90;;;;;;5046373;28;20149;-66
2023/10/01 07:34:55;;;;;;;16.10;6.65;;;17.80;99.90;;;;;;5057781;28;20080;-67
2023/10/01 07:37:34;;;;;;;22.23;6.43;;;17.80;99.90;;;;;;5042179;28;20072;-67
2023/10/01 07:40:16;;;;;;;20.35;7.03;;;17.90;99.90;;;;;;5038929;28;20488;-67
2023/10/01 07:42:57;;;;;;;21.15;7.05;;;17.90;99.90;;;;;;5043941;28;20111;-68
2023/10/01 07:45:24;;;;;;;14.88;7.00;;;18.00;99.90;;;;;;5034876;28;20220;-68
2023/10/01 07:47:51;;;;;;;19.75;6.63;;;18.00;99.90;;;;;;5048424;28;20045;-67
2023/10/01 07:50:18;;;;;;;17.55;7.00;;;18.10;99.90;;;;;;5058311;28;20210;-68
2023/10/01 07:52:45;;;;;;;11.88;6.47;;;18.10;99.90;;;;;;5046689;28;20446;-67
2023/10/01 07:55:35;;;;;;;17.75;6.85;;;18.20;99.90;;;;;;5055626;28;20863;-68
2023/10/01 08:00:58;;;;;;;12.25;5.90;;;18.20;99.90;;;;;;5053205;28;20041;-67
2023/10/01 08:06:10;;;;;;;17.40;5.32;;;18.40;99.90;;;;;;5057338;28;20101;-67
2023/10/01 08:08:37;;;;;;;17.25;6.70;;;18.40;99.90;;;;;;5052555;28;20036;-67
2023/10/01 08:11:37;;;;;;;18.38;6.20;;;18.50;99.90;;;;;;5050620;28;20045;-68
2023/10/01 08:13:55;;;;;;;14.73;5.15;;;18.60;99.90;;;;;;5052893;28;20065;-69
2023/10/01 08:16:23;;;;;;;13.63;5.38;;;18.60;99.90;;;;;;5062776;28;20041;-69
2023/10/01 08:18:57;;;;;;;13.60;5.28;;;18.70;99.90;;;;;;5064580;28;20131;-69
2023/10/01 08:21:37;;;;;;;13.50;5.22;;;18.80;99.90;;;;;;5037696;28;20048;-68
2023/10/01 08:24:09;;;;;;;13.15;5.28;;;18.80;99.90;;;;;;5036097;28;20315;-69
2023/10/01 08:26:43;;;;;;;13.73;5.07;;;19.00;99.90;;;;;;5053351;28;20479;-69
2023/10/01 08:29:14;;;;;;;11.05;5.25;;;19.10;99.90;;;;;;5058144;28;20053;-67
2023/10/01 08:34:22;;;;;;;10.82;5.05;;;19.30;99.90;;;;;;5056549;28;20474;-68
2023/10/01 08:36:54;;;;;;;16.17;5.80;;;19.40;99.90;;;;;;5053108;28;20047;-69
2023/10/01 08:40:13;;;;;;;11.52;5.40;;;19.60;99.90;;;;;;5032215;28;20150;-68
2023/10/01 08:42:09;;;;;;;12.55;4.80;;;19.80;99.90;;;;;;5038200;28;20057;-66
2023/10/01 08:44:45;;;;;;;15.35;5.15;;;19.90;99.90;;;;;;5037708;28;20185;-67
2023/10/01 08:47:26;;;;;;;11.57;5.10;;;20.00;99.90;;;;;;5037914;28;20053;-67
2023/10/01 08:49:53;;;;;;;14.00;5.38;;;20.00;99.90;;;;;;5059676;28;20055;-68
2023/10/01 08:52:25;;;;;;;13.48;5.30;;;20.00;99.90;;;;;;5037969;28;20572;-67
2023/10/01 08:54:56;;;;;;;12.13;4.40;;;20.10;99.90;;;;;;5041043;28;20087;-68
2023/10/01 08:57:45;;;;;;;15.88;4.97;;;20.10;99.90;;;;;;5058141;28;20866;-67
2023/10/01 09:00:19;;;;;;;16.05;6.10;;;20.10;99.90;;;;;;5037091;28;20048;-67
2023/10/01 09:03:07;;;;;;;11.43;5.18;;;20.10;99.90;;;;;;5054102;28;20098;-67
2023/10/01 09:05:34;;;;;;;12.20;5.82;;;20.10;99.90;;;;;;5055410;28;20419;-68
2023/10/01 09:08:16;;;;;;;13.07;5.10;;;20.00;99.90;;;;;;5063669;28;20082;-69
2023/10/01 09:10:50;;;;;;;11.70;4.45;;;20.00;99.90;;;;;;5070611;28;20049;-68
2023/10/01 09:13:21;;;;;;;17.55;5.70;;;19.90;99.90;;;;;;5030192;28;20099;-69
2023/10/01 09:15:54;;;;;;;11.68;5.05;;;20.00;99.90;;;;;;5064106;28;20044;-68
2023/10/01 09:18:24;;;;;;;10.65;5.03;;;20.10;99.90;;;;;;5059658;28;20055;-69
2023/10/01 09:21:20;;;;;;;8.77;4.22;;;20.20;99.90;;;;;;5043036;28;20283;-68
2023/10/01 09:23:56;;;;;;;11.52;5.25;;;20.20;99.90;;;;;;5053535;28;20567;-68
2023/10/01 09:29:21;;;;;;;12.00;5.18;;;20.20;99.90;;;;;;5045127;28;20053;-68
2023/10/01 09:31:52;;;;;;;14.05;5.10;;;20.30;99.90;;;;;;5063484;28;20055;-68
2023/10/01 09:34:31;;;;;;;10.80;5.40;;;20.40;99.90;;;;;;5054816;28;20048;-68
2023/10/01 09:37:01;;;;;;;11.77;5.75;;;20.40;99.90;;;;;;5066568;28;20055;-68
2023/10/01 09:39:38;;;;;;;16.70;6.13;;;20.40;99.90;;;;;;5056016;28;20041;-68
2023/10/01 09:42:22;;;;;;;12.23;5.30;;;20.50;99.90;;;;;;5052637;28;20046;-68
2023/10/01 09:44:53;;;;;;;11.00;5.50;;;20.50;99.90;;;;;;5059625;28;20056;-68
2023/10/01 09:47:24;;;;;;;14.73;5.53;;;20.60;99.90;;;;;;5043297;28;20052;-68
2023/10/01 09:49:52;;;;;;;14.30;5.35;;;20.70;99.90;;;;;;5040981;28;20120;-69
2023/10/01 09:52:48;;;;;;;14.80;5.40;;;20.70;99.90;;;;;;5057908;28;20091;-68
2023/10/01 09:55:29;;;;;;;13.73;5.55;;;20.70;99.90;;;;;;5059576;28;20097;-69
2023/10/01 09:58:00;;;;;;;11.90;4.90;;;20.80;99.90;;;;;;5058373;28;20045;-68
2023/10/01 10:00:42;;;;;;;15.13;6.13;;;20.80;99.90;;;;;;5066263;28;20141;-68
2023/10/01 10:03:11;;;;;;;14.38;5.80;;;20.80;99.90;;;;;;5038700;28;20114;-66
2023/10/01 10:05:42;;;;;;;12.80;5.85;;;20.80;99.90;;;;;;5060025;28;20041;-67
2023/10/01 10:08:26;;;;;;;14.57;6.07;;;20.90;99.90;;;;;;5056147;28;20050;-67
2023/10/01 10:10:55;;;;;;;13.00;6.18;;;21.00;99.90;;;;;;5036644;28;20037;-68
2023/10/01 10:13:49;;;;;;;12.30;4.82;;;21.00;99.90;;;;;;5035677;28;20048;-68
2023/10/01 10:16:30;;;;;;;11.85;5.82;;;21.00;99.90;;;;;;5033829;28;20053;-69
2023/10/01 10:19:21;;;;;;;13.63;5.65;;;21.00;99.90;;;;;;5044751;28;20596;-68
2023/10/01 10:22:05;;;;;;;12.95;5.13;;;21.20;99.90;;;;;;5047249;28;20048;-67
2023/10/01 10:24:45;;;;;;;11.82;4.68;;;21.20;99.90;;;;;;5060525;28;20088;-68
2023/10/01 10:27:19;;;;;;;11.60;5.07;;;21.30;99.90;;;;;;5058669;28;20055;-68
2023/10/01 10:32:28;;;;;;;12.07;5.15;;;21.30;99.90;;;;;;5061761;28;20044;-68
2023/10/01 10:35:04;;;;;;;11.55;4.95;;;21.40;99.90;;;;;;5049891;28;20059;-67
2023/10/01 10:37:35;;;;;;;9.82;5.28;;;21.40;99.90;;;;;;5043970;28;20052;-67
2023/10/01 10:40:04;;;;;;;19.83;5.93;;;21.40;99.90;;;;;;5063863;28;20052;-68
2023/10/01 10:42:34;;;;;;;13.02;5.22;;;21.40;99.90;;;;;;5014572;28;20140;-68
2023/10/01 10:45:23;;;;;;;9.98;4.95;;;21.40;99.90;;;;;;5056002;28;20041;-67
2023/10/01 10:48:04;;;;;;;13.27;5.82;;;21.40;99.90;;;;;;5045128;28;20052;-67
2023/10/01 10:51:02;;;;;;;10.00;4.18;;;21.40;99.90;;;;;;5048035;28;20075;-68
2023/10/01 10:53:47;;;;;;;12.85;5.40;;;21.40;99.90;;;;;;5048055;28;20080;-67
2023/10/01 10:56:15;;;;;;;10.75;5.45;;;21.50;99.90;;;;;;5063286;28;20086;-68
2023/10/01 10:59:04;;;;;;;14.02;5.38;;;21.50;99.90;;;;;;5056162;28;20041;-68
2023/10/01 11:01:43;;;;;;;11.93;4.97;;;21.60;99.90;;;;;;5049982;28;20065;-68
2023/10/01 11:04:12;;;;;;;13.98;5.00;;;21.70;99.90;;;;;;5046594;28;20041;-67
2023/10/01 11:06:40;;;;;;;15.50;6.10;;;21.80;99.90;;;;;;5053061;28;20132;-68
2023/10/01 11:09:22;;;;;;;14.02;5.72;;;21.90;99.90;;;;;;5060552;28;20704;-67
2023/10/01 11:12:21;;;;;;;8.82;5.43;;;22.10;99.90;;;;;;5034925;28;20048;-68
2023/10/01 11:17:47;;;;;;;12.02;5.20;;;22.30;99.90;;;;;;5072332;28;20155;-68
2023/10/01 11:20:23;;;;;;;14.07;6.35;;;22.30;99.90;;;;;;5036985;28;20049;-69
2023/10/01 11:22:54;;;;;;;16.70;6.03;;;22.40;99.90;;;;;;5048538;28;20056;-68
2023/10/01 11:25:22;;;;;;;13.20;5.90;;;22.40;99.90;;;;;;5027414;28;20060;-69
2023/10/01 11:28:10;;;;;;;17.17;5.65;;;22.40;99.90;;;;;;5043720;28;20037;-68
2023/10/01 11:30:42;;;;;;;14.30;6.20;;;22.50;99.90;;;;;;5032584;28;20045;-67
2023/10/01 11:35:59;;;;;;;15.15;5.88;;;22.60;99.90;;;;;;5055182;28;20069;-67
2023/10/01 11:38:27;;;;;;;16.17;6.00;;;22.70;99.90;;;;;;5055066;28;20048;-67
2023/10/01 11:41:10;;;;;;;17.90;5.30;;;22.60;99.90;;;;;;5051586;28;20228;-68
2023/10/01 11:43:58;;;;;;;17.88;6.40;;;22.70;99.90;;;;;;5042943;28;20056;-68
2023/10/01 11:46:29;;;;;;;14.50;5.43;;;22.60;99.90;;;;;;5038023;28;20043;-67
2023/10/01 11:49:02;;;;;;;12.75;5.30;;;22.70;99.90;;;;;;5059325;28;20061;-67
2023/10/01 11:51:50;;;;;;;20.15;5.95;;;22.70;99.90;;;;;;5057637;28;20045;-68
2023/10/01 11:54:19;;;;;;;15.05;5.93;;;22.70;99.90;;;;;;5039932;28;20049;-67
2023/10/01 11:57:06;;;;;;;10.90;4.40;;;22.70;99.90;;;;;;5052543;28;20053;-68
2023/10/01 11:59:37;;;;;;;10.55;5.53;;;22.60;99.90;;;;;;5049230;28;20135;-68
2023/10/01 12:02:20;;;;;;;16.67;5.65;;;22.70;99.90;;;;;;5056035;28;20417;-67
2023/10/01 12:04:56;;;;;;;13.38;5.70;;;22.70;99.90;;;;;;5046663;28;20495;-69
2023/10/01 12:07:24;;;;;;;14.95;5.70;;;22.70;99.90;;;;;;5050446;28;20542;-67
2023/10/01 12:09:52;;;;;;;9.48;4.47;;;22.80;99.90;;;;;;5048769;28;20065;-66
2023/10/01 12:12:19;;;;;;;12.38;5.30;;;22.70;99.90;;;;;;5048728;28;20053;-67
2023/10/01 12:14:55;;;;;;;12.93;4.85;;;22.80;99.90;;;;;;4698877;28;10000143;-68
2023/10/01 12:17:27;;;;;;;11.85;5.35;;;22.70;99.90;;;;;;5026904;28;20119;-66
2023/10/01 12:20:00;;;;;;;12.77;5.50;;;22.80;99.90;;;;;;5048924;28;20152;-65
2023/10/01 12:22:29;;;;;;;14.07;5.68;;;22.80;99.90;;;;;;5043601;28;20045;-68
2023/10/01 12:24:57;;;;;;;13.90;5.60;;;22.80;99.90;;;;;;5045733;28;20044;-68
2023/10/01 12:27:41;;;;;;;12.80;5.75;;;22.80;99.90;;;;;;5030842;28;20047;-68
2023/10/01 12:30:27;;;;;;;13.57;5.93;;;22.80;99.90;;;;;;5055183;28;20060;-69
2023/10/01 12:33:00;;;;;;;11.85;4.80;;;22.80;99.90;;;;;;5036335;28;20111;-68
2023/10/01 12:35:27;;;;;;;15.25;6.07;;;22.80;99.90;;;;;;5050439;28;20415;-68
2023/10/01 12:38:05;;;;;;;11.50;4.72;;;22.80;99.90;;;;;;5045420;28;20048;-67
2023/10/01 12:40:35;;;;;;;11.30;5.70;;;22.80;99.90;;;;;;5049279;28;20487;-66
2023/10/01 12:45:51;;;;;;;11.10;5.15;;;22.80;99.90;;;;;;5050170;28;20052;-67
2023/10/01 12:48:21;;;;;;;12.65;5.65;;;22.80;99.90;;;;;;5046641;28;20099;-68
2023/10/01 12:51:00;;;;;;;16.10;5.60;;;22.80;99.90;;;;;;5038295;28;20044;-67
2023/10/01 12:53:27;;;;;;;16.90;5.05;;;22.80;99.90;;;;;;5049931;28;20075;-68
2023/10/01 12:55:54;;;;;;;15.50;6.13;;;22.80;99.90;;;;;;5051531;28;20051;-67
2023/10/01 12:58:29;;;;;;;11.10;5.32;;;22.80;99.90;;;;;;5045001;28;20294;-67
2023/10/01 13:00:57;;;;;;;15.85;5.57;;;22.80;99.90;;;;;;5046296;28;20044;-66
2023/10/01 13:03:24;;;;;;;14.27;6.32;;;22.80;99.90;;;;;;5040366;28;20153;-68
2023/10/01 13:05:53;;;;;;;17.67;6.07;;;22.80;99.90;;;;;;5042289;28;20100;-68
2023/10/01 13:08:29;;;;;;;11.75;5.28;;;22.80;99.90;;;;;;5044813;28;20048;-69
2023/10/01 13:10:56;;;;;;;13.00;6.18;;;22.90;99.90;;;;;;5041018;28;20092;-68
2023/10/01 13:13:30;;;;;;;12.38;5.25;;;22.90;99.90;;;;;;5022764;28;20416;-68
2023/10/01 13:15:57;;;;;;;15.95;6.25;;;22.90;99.90;;;;;;5046782;28;20049;-68
2023/10/01 13:18:32;;;;;;;14.20;6.28;;;23.00;99.90;;;;;;5061416;28;20487;-68
2023/10/01 13:21:06;;;;;;;16.77;6.28;;;23.10;99.90;;;;;;5049619;28;20045;-68
2023/10/01 13:23:41;;;;;;;15.73;6.57;;;23.10;99.90;;;;;;5052906;28;20205;-67
2023/10/01 13:26:24;;;;;;;14.90;6.22;;;23.10;99.90;;;;;;5030085;28;20170;-67
2023/10/01 13:28:56;;;;;;;23.00;7.00;;;23.10;99.90;;;;;;5042435;28;20064;-68
2023/10/01 13:35:31;;;;;;;14.20;5.55;;;23.30;99.90;;;;;;5051148;28;20083;-68
2023/10/01 14:09:54;;;;;;;15.45;6.45;;;23.50;99.90;;;;;;5042928;28;20052;-68
2023/10/01 14:15:21;;;;;;;16.08;6.03;;;23.30;99.90;;;;;;5041858;28;20368;-69
2023/10/01 14:17:56;;;;;;;16.20;5.90;;;23.20;99.90;;;;;;5049668;28;20061;-68
2023/10/01 14:20:46;;;;;;;18.27;7.13;;;23.20;99.90;;;;;;5051870;28;20040;-70
2023/10/01 14:23:31;;;;;;;15.75;6.35;;;23.20;99.90;;;;;;5046168;28;20054;-69
2023/10/01 14:26:10;;;;;;;19.73;7.07;;;23.30;99.90;;;;;;5048528;28;20045;-70
2023/10/01 14:28:38;;;;;;;20.77;6.38;;;23.30;99.90;;;;;;5053171;28;20056;-68
2023/10/01 14:31:05;;;;;;;17.27;6.80;;;23.40;99.90;;;;;;5053714;28;20095;-68
2023/10/01 14:33:34;;;;;;;16.90;6.90;;;23.40;99.90;;;;;;5054072;28;20053;-68